EGQK - Kinloss
Distance from station: E 5mi, 14km
Updated: 04/23/2018 5:50am
Mostly Cloudy
Mostly Cloudy
 Wind from WSW
Wind: WSW 22 mph , 35 km/h
Temperature: 55°F , 13°C
Dew Point: 41°F , 5°C
Humidity: 59%
Barometer: 29.62 inHg , 1003 hPa
Clouds: Mostly Cloudy
Visibility: 6 miles , 10 km
Cloud details: Few Clouds 3000 ft
Partly Cloudy 5000 ft
Mostly Cloudy 11000 ft
2018/04/23 12:50 EGQK 231250Z AUTO 25019KT 9999 FEW030/// SCT050/// BKN110/// 13/05 Q1003 RERA